Time;durP1;ratioP1;P1;durP2;ratioP2;P2;SDS_P1;SDS_P2;PMS_P1;PMS_P2;Temp;Humidity;BMP_temperature;BMP_pressure;BME280_temperature;BME280_humidity;BME280_pressure;Samples;Min_cycle;Max_cycle;Signal;HPM_P1;HPM_P2
2023/03/29 00:00:53;;;;;;;;;;;;;;;;;;10373679;28;1886;-75
2023/03/29 00:05:49;;;;;;;;;;;;;;;;;;10374155;28;853;-75
2023/03/29 00:10:45;;;;;;;;;;;;;;;;;;10373948;28;791;-75
2023/03/29 00:15:41;;;;;;;;;;;;;;;;;;10374377;28;888;-75
2023/03/29 00:20:37;;;;;;;;;;;;;;;;;;10373501;28;1009;-75
2023/03/29 00:25:33;;;;;;;;;;;;;;;;;;10373292;28;1886;-76
2023/03/29 00:30:29;;;;;;;;;;;;;;;;;;10373787;28;815;-75
2023/03/29 00:35:25;;;;;;;;;;;;;;;;;;10372895;28;927;-76
2023/03/29 00:40:21;;;;;;;;;;;;;;;;;;10372230;28;1507;-75
2023/03/29 00:45:17;;;;;;;;;;;;;;;;;;10372583;28;1965;-75
2023/03/29 00:50:15;;;;;;;;;;;;;;;;;;10372987;28;775;-75
2023/03/29 00:55:11;;;;;;;;;;;;;;;;;;10372101;28;1011;-75
2023/03/29 01:00:10;;;;;;;;;;;;;;;;;;10372594;28;937;-76
2023/03/29 01:05:05;;;;;;;;;;;;;;;;;;10370992;28;1902;-75
2023/03/29 01:10:01;;;;;;;;;;;;;;;;;;10371133;28;823;-76
2023/03/29 01:14:57;;;;;;;;;;;;;;;;;;10372050;28;904;-75
2023/03/29 01:19:56;;;;;;;;;;;;;;;;;;10371838;28;803;-76
2023/03/29 01:24:52;;;;;;;;;;;;;;;;;;10370955;28;1890;-76
2023/03/29 01:29:48;;;;;;;;;;;;;;;;;;10371439;28;899;-76
2023/03/29 01:34:44;;;;;;;;;;;;;;;;;;10370593;28;914;-75
2023/03/29 01:39:40;;;;;;;;;;;;;;;;;;10370394;28;1119;-75
2023/03/29 01:44:36;;;;;;;;;;;;;;;;;;10370184;28;2040;-75
2023/03/29 01:49:33;;;;;;;;;;;;;;;;;;10370134;28;762;-75
2023/03/29 01:54:29;;;;;;;;;;;;;;;;;;10369916;28;870;-75
2023/03/29 01:59:25;;;;;;;;;;;;;;;;;;10369600;28;892;-76
2023/03/29 02:04:21;;;;;;;;;;;;;;;;;;10369367;28;1939;-76
2023/03/29 02:09:17;;;;;;;;;;;;;;;;;;10369253;28;863;-75
2023/03/29 02:14:14;;;;;;;;;;;;;;;;;;10369661;28;870;-75
2023/03/29 02:19:10;;;;;;;;;;;;;;;;;;10368626;28;799;-75
2023/03/29 02:24:06;;;;;;;;;;;;;;;;;;10368729;28;1937;-76
2023/03/29 02:29:02;;;;;;;;;;;;;;;;;;10369078;28;948;-76
2023/03/29 02:33:58;;;;;;;;;;;;;;;;;;10368343;28;843;-76
2023/03/29 02:38:53;;;;;;;;;;;;;;;;;;10367936;28;1104;-76
2023/03/29 02:43:49;;;;;;;;;;;;;;;;;;10368125;28;1910;-76
2023/03/29 02:48:45;;;;;;;;;;;;;;;;;;10368380;28;847;-75
2023/03/29 02:53:46;;;;;;;;;;;;;;;;;;10398962;27;1285387;-74
2023/03/29 02:58:42;;;;;;;;;;;;;;;;;;10444289;28;837;-75
2023/03/29 03:03:38;;;;;;;;;;;;;;;;;;10444084;28;813;-74
2023/03/29 03:08:34;;;;;;;;;;;;;;;;;;10443901;28;778;-74
2023/03/29 03:13:30;;;;;;;;;;;;;;;;;;10443795;28;1976;-74
2023/03/29 03:18:26;;;;;;;;;;;;;;;;;;10443741;28;809;-74
2023/03/29 03:23:22;;;;;;;;;;;;;;;;;;10443942;28;861;-74
2023/03/29 03:28:18;;;;;;;;;;;;;;;;;;10443086;28;863;-74
2023/03/29 03:33:14;;;;;;;;;;;;;;;;;;10442161;28;1949;-74
2023/03/29 03:38:10;;;;;;;;;;;;;;;;;;10424453;28;733;-74
2023/03/29 03:43:06;;;;;;;;;;;;;;;;;;10442649;28;773;-74
2023/03/29 03:48:02;;;;;;;;;;;;;;;;;;10442351;28;824;-74
2023/03/29 03:52:58;;;;;;;;;;;;;;;;;;10442421;28;1897;-74
2023/03/29 03:57:54;;;;;;;;;;;;;;;;;;10441954;28;967;-74
2023/03/29 04:02:50;;;;;;;;;;;;;;;;;;10427183;28;949;-74
2023/03/29 04:07:46;;;;;;;;;;;;;;;;;;10414592;28;778;-74
2023/03/29 04:12:42;;;;;;;;;;;;;;;;;;10413420;28;1906;-74
2023/03/29 04:17:38;;;;;;;;;;;;;;;;;;10413975;28;877;-74
2023/03/29 04:22:34;;;;;;;;;;;;;;;;;;10412764;28;1435;-74
2023/03/29 04:27:30;;;;;;;;;;;;;;;;;;10412922;28;944;-74
2023/03/29 04:32:26;;;;;;;;;;;;;;;;;;10412646;28;1882;-74
2023/03/29 04:37:22;;;;;;;;;;;;;;;;;;10413266;28;810;-74
2023/03/29 04:42:18;;;;;;;;;;;;;;;;;;10412405;28;862;-74
2023/03/29 04:47:14;;;;;;;;;;;;;;;;;;10412812;28;782;-74
2023/03/29 04:52:10;;;;;;;;;;;;;;;;;;10411689;28;1897;-74
2023/03/29 04:57:06;;;;;;;;;;;;;;;;;;10411748;28;992;-74
2023/03/29 05:02:03;;;;;;;;;;;;;;;;;;10412125;28;896;-74
2023/03/29 05:07:01;;;;;;;;;;;;;;;;;;10411723;28;789;-74
2023/03/29 05:11:56;;;;;;;;;;;;;;;;;;10412075;28;1882;-74
2023/03/29 05:16:52;;;;;;;;;;;;;;;;;;10410753;28;864;-74
2023/03/29 05:21:51;;;;;;;;;;;;;;;;;;10410801;28;959;-74
2023/03/29 05:26:50;;;;;;;;;;;;;;;;;;10410576;28;922;-74
2023/03/29 05:31:46;;;;;;;;;;;;;;;;;;10410993;28;1943;-74
2023/03/29 05:36:44;;;;;;;;;;;;;;;;;;10410288;28;791;-74
2023/03/29 05:41:40;;;;;;;;;;;;;;;;;;10410073;28;993;-74
2023/03/29 05:46:36;;;;;;;;;;;;;;;;;;10409909;28;933;-74
2023/03/29 05:51:32;;;;;;;;;;;;;;;;;;10409212;28;1910;-74
2023/03/29 05:56:28;;;;;;;;;;;;;;;;;;10410090;28;793;-74
2023/03/29 06:01:24;;;;;;;;;;;;;;;;;;10408731;28;856;-74
2023/03/29 06:06:20;;;;;;;;;;;;;;;;;;10409080;28;826;-74
2023/03/29 06:11:16;;;;;;;;;;;;;;;;;;10408865;28;1882;-74
2023/03/29 06:16:12;;;;;;;;;;;;;;;;;;10409416;28;792;-79
2023/03/29 06:21:08;;;;;;;;;;;;;;;;;;10408645;28;788;-74
2023/03/29 06:26:04;;;;;;;;;;;;;;;;;;10408891;28;833;-74
2023/03/29 06:31:01;;;;;;;;;;;;;;;;;;10408203;28;1886;-74
2023/03/29 06:35:56;;;;;;;;;;;;;;;;;;10408093;28;904;-75
2023/03/29 06:40:52;;;;;;;;;;;;;;;;;;10407492;28;1396;-74
2023/03/29 06:45:48;;;;;;;;;;;;;;;;;;10408508;28;1064;-74
2023/03/29 06:50:45;;;;;;;;;;;;;;;;;;10408432;28;1905;-74
2023/03/29 06:55:40;;;;;;;;;;;;;;;;;;10407183;28;1637;-75
2023/03/29 07:00:38;;;;;;;;;;;;;;;;;;10408309;28;817;-75
2023/03/29 07:05:35;;;;;;;;;;;;;;;;;;10408140;28;1135;-74
2023/03/29 07:10:34;;;;;;;;;;;;;;;;;;10407474;28;1878;-74
2023/03/29 07:15:29;;;;;;;;;;;;;;;;;;10408255;28;928;-75
2023/03/29 07:20:25;;;;;;;;;;;;;;;;;;10407666;28;926;-74
2023/03/29 07:25:22;;;;;;;;;;;;;;;;;;10408149;28;853;-74
2023/03/29 07:30:18;;;;;;;;;;;;;;;;;;10407111;28;1873;-74
2023/03/29 07:35:14;;;;;;;;;;;;;;;;;;10407104;28;867;-73
2023/03/29 07:40:15;;;;;;;;;;;;;;;;;;10413993;28;889;-74
2023/03/29 07:45:12;;;;;;;;;;;;;;;;;;10414643;28;980;-74
2023/03/29 07:50:08;;;;;;;;;;;;;;;;;;10414897;28;1914;-74
2023/03/29 07:55:04;;;;;;;;;;;;;;;;;;10414337;28;781;-74
2023/03/29 08:00:00;;;;;;;;;;;;;;;;;;10414704;28;852;-68
2023/03/29 08:04:57;;;;;;;;;;;;;;;;;;10413232;28;948;-66
2023/03/29 08:09:53;;;;;;;;;;;;;;;;;;10413655;28;1943;-69
2023/03/29 08:14:49;;;;;;;;;;;;;;;;;;10411343;28;1145;-66
2023/03/29 08:19:45;;;;;;;;;;;;;;;;;;10413159;28;993;-66
2023/03/29 08:24:41;;;;;;;;;;;;;;;;;;10412831;28;882;-66
2023/03/29 08:29:37;;;;;;;;;;;;;;;;;;10411925;28;1933;-66
2023/03/29 08:34:34;;;;;;;;;;;;;;;;;;10412381;28;805;-66
2023/03/29 08:39:30;;;;;;;;;;;;;;;;;;10412528;28;871;-66
2023/03/29 08:44:26;;;;;;;;;;;;;;;;;;10413199;28;793;-66
2023/03/29 08:49:22;;;;;;;;;;;;;;;;;;10412280;28;1980;-72
2023/03/29 08:54:18;;;;;;;;;;;;;;;;;;10411612;28;750;-72
2023/03/29 08:59:14;;;;;;;;;;;;;;;;;;10411852;28;800;-73
2023/03/29 09:04:10;;;;;;;;;;;;;;;;;;10411577;28;1014;-73
2023/03/29 09:09:06;;;;;;;;;;;;;;;;;;10411697;28;1909;-73
2023/03/29 09:14:02;;;;;;;;;;;;;;;;;;10410968;28;1020;-74
2023/03/29 09:18:58;;;;;;;;;;;;;;;;;;10410810;28;828;-73
2023/03/29 09:23:54;;;;;;;;;;;;;;;;;;10410469;28;789;-73
2023/03/29 09:28:50;;;;;;;;;;;;;;;;;;10410424;28;759;-73
2023/03/29 09:33:46;;;;;;;;;;;;;;;;;;10410640;28;1881;-73
2023/03/29 09:38:42;;;;;;;;;;;;;;;;;;10409952;28;969;-73
2023/03/29 09:43:38;;;;;;;;;;;;;;;;;;10409595;28;1022;-74
2023/03/29 09:48:34;;;;;;;;;;;;;;;;;;10410222;28;872;-73
2023/03/29 09:53:30;;;;;;;;;;;;;;;;;;10410198;28;1981;-73
2023/03/29 09:58:26;;;;;;;;;;;;;;;;;;10409012;28;988;-73
2023/03/29 10:03:22;;;;;;;;;;;;;;;;;;10409389;28;873;-74
2023/03/29 10:08:18;;;;;;;;;;;;;;;;;;10409438;28;760;-74
2023/03/29 10:13:14;;;;;;;;;;;;;;;;;;10409499;28;1885;-73
2023/03/29 10:18:10;;;;;;;;;;;;;;;;;;10408370;28;824;-74
2023/03/29 10:23:06;;;;;;;;;;;;;;;;;;10409173;28;975;-73
2023/03/29 10:28:02;;;;;;;;;;;;;;;;;;10407989;28;849;-73
2023/03/29 10:32:58;;;;;;;;;;;;;;;;;;10408465;28;1952;-74
2023/03/29 10:37:54;;;;;;;;;;;;;;;;;;10407793;28;788;-73
2023/03/29 10:42:52;;;;;;;;;;;;;;;;;;10408852;28;821;-73
2023/03/29 10:47:48;;;;;;;;;;;;;;;;;;10407769;28;837;-73
2023/03/29 10:52:44;;;;;;;;;;;;;;;;;;10407098;28;1988;-73
2023/03/29 10:57:40;;;;;;;;;;;;;;;;;;10408447;28;868;-74
2023/03/29 11:02:36;;;;;;;;;;;;;;;;;;10407682;28;793;-74
2023/03/29 11:07:32;;;;;;;;;;;;;;;;;;10408452;28;890;-68
2023/03/29 11:12:28;;;;;;;;;;;;;;;;;;10410423;28;1889;-67
2023/03/29 11:17:23;;;;;;;;;;;;;;;;;;10416530;28;817;-67
2023/03/29 11:22:20;;;;;;;;;;;;;;;;;;10415789;28;959;-67
2023/03/29 11:27:15;;;;;;;;;;;;;;;;;;10415571;28;785;-67
2023/03/29 11:32:12;;;;;;;;;;;;;;;;;;10415276;28;1894;-67
2023/03/29 11:37:07;;;;;;;;;;;;;;;;;;10415108;28;812;-67
2023/03/29 11:42:03;;;;;;;;;;;;;;;;;;10415522;28;769;-74
2023/03/29 11:46:59;;;;;;;;;;;;;;;;;;10414122;28;888;-73
2023/03/29 11:51:55;;;;;;;;;;;;;;;;;;10415694;28;1905;-67
2023/03/29 11:56:51;;;;;;;;;;;;;;;;;;10414359;28;835;-67
2023/03/29 12:01:47;;;;;;;;;;;;;;;;;;10413294;28;1082;-67
2023/03/29 12:06:43;;;;;;;;;;;;;;;;;;10414339;28;877;-67
2023/03/29 12:11:39;;;;;;;;;;;;;;;;;;10414075;28;1889;-67
2023/03/29 12:16:35;;;;;;;;;;;;;;;;;;10413899;28;770;-67
2023/03/29 12:21:31;;;;;;;;;;;;;;;;;;10413115;28;968;-67
2023/03/29 12:26:27;;;;;;;;;;;;;;;;;;10412550;28;857;-67
2023/03/29 12:31:23;;;;;;;;;;;;;;;;;;10413474;28;1948;-67
2023/03/29 12:36:19;;;;;;;;;;;;;;;;;;10412502;28;820;-67
2023/03/29 12:41:15;;;;;;;;;;;;;;;;;;10412469;28;861;-66
2023/03/29 12:46:11;;;;;;;;;;;;;;;;;;10412226;28;869;-66
2023/03/29 12:51:07;;;;;;;;;;;;;;;;;;10411332;28;1982;-66
2023/03/29 12:56:03;;;;;;;;;;;;;;;;;;10411581;28;797;-67
2023/03/29 13:00:58;;;;;;;;;;;;;;;;;;10411635;28;935;-67
2023/03/29 13:05:55;;;;;;;;;;;;;;;;;;10411206;28;892;-67
2023/03/29 13:10:51;;;;;;;;;;;;;;;;;;10411159;28;1886;-67
2023/03/29 13:15:47;;;;;;;;;;;;;;;;;;10410848;28;968;-66
2023/03/29 13:20:42;;;;;;;;;;;;;;;;;;10411434;28;940;-67
2023/03/29 13:25:40;;;;;;;;;;;;;;;;;;10411151;28;868;-66
2023/03/29 13:30:36;;;;;;;;;;;;;;;;;;10410232;28;1882;-66
2023/03/29 13:35:32;;;;;;;;;;;;;;;;;;10409417;28;800;-74
2023/03/29 13:40:29;;;;;;;;;;;;;;;;;;10410489;28;883;-72
2023/03/29 13:45:25;;;;;;;;;;;;;;;;;;10410315;28;885;-72
2023/03/29 13:50:21;;;;;;;;;;;;;;;;;;10410072;28;1971;-72
2023/03/29 13:55:17;;;;;;;;;;;;;;;;;;10409270;28;1043;-72
2023/03/29 14:00:16;;;;;;;;;;;;;;;;;;10409192;28;901;-72
2023/03/29 14:05:12;;;;;;;;;;;;;;;;;;10407859;28;1161;-73
2023/03/29 14:10:08;;;;;;;;;;;;;;;;;;10408713;28;1889;-72
2023/03/29 14:15:04;;;;;;;;;;;;;;;;;;10408985;28;773;-72
2023/03/29 14:20:00;;;;;;;;;;;;;;;;;;10408525;28;869;-73
2023/03/29 14:24:57;;;;;;;;;;;;;;;;;;10409776;28;832;-72
2023/03/29 14:29:53;;;;;;;;;;;;;;;;;;10407582;28;1890;-72
2023/03/29 14:34:48;;;;;;;;;;;;;;;;;;10408289;28;933;-72
2023/03/29 14:39:45;;;;;;;;;;;;;;;;;;10407397;28;1015;-73
2023/03/29 14:44:41;;;;;;;;;;;;;;;;;;10407816;28;925;-72
2023/03/29 14:49:36;;;;;;;;;;;;;;;;;;10407662;28;1990;-73
2023/03/29 14:54:33;;;;;;;;;;;;;;;;;;10407938;28;903;-71
2023/03/29 14:59:29;;;;;;;;;;;;;;;;;;10408512;28;933;-73
2023/03/29 15:04:25;;;;;;;;;;;;;;;;;;10408416;28;769;-74
2023/03/29 15:09:21;;;;;;;;;;;;;;;;;;10408144;28;1960;-75
2023/03/29 15:14:17;;;;;;;;;;;;;;;;;;10407519;28;897;-74
2023/03/29 15:19:13;;;;;;;;;;;;;;;;;;10408309;28;870;-72
2023/03/29 15:24:09;;;;;;;;;;;;;;;;;;10408002;28;887;-73
2023/03/29 15:29:06;;;;;;;;;;;;;;;;;;10407226;28;845;-72
2023/03/29 15:34:02;;;;;;;;;;;;;;;;;;10407631;28;1886;-67
2023/03/29 15:38:58;;;;;;;;;;;;;;;;;;10406996;28;781;-66
2023/03/29 15:43:54;;;;;;;;;;;;;;;;;;10406946;28;808;-67
2023/03/29 15:48:50;;;;;;;;;;;;;;;;;;10406727;28;1055;-68
2023/03/29 15:53:46;;;;;;;;;;;;;;;;;;10407255;28;1975;-67
2023/03/29 15:58:42;;;;;;;;;;;;;;;;;;10409263;28;999;-67
2023/03/29 16:03:38;;;;;;;;;;;;;;;;;;10414785;28;819;-67
2023/03/29 16:08:34;;;;;;;;;;;;;;;;;;10413904;28;888;-66
2023/03/29 16:13:30;;;;;;;;;;;;;;;;;;10413715;28;1939;-67
2023/03/29 16:18:26;;;;;;;;;;;;;;;;;;10413250;28;872;-65
2023/03/29 16:23:22;;;;;;;;;;;;;;;;;;10414095;28;963;-67
2023/03/29 16:28:18;;;;;;;;;;;;;;;;;;10413239;28;761;-67
2023/03/29 16:33:14;;;;;;;;;;;;;;;;;;10412926;28;1890;-67
2023/03/29 16:38:10;;;;;;;;;;;;;;;;;;10412707;28;915;-67
2023/03/29 16:43:06;;;;;;;;;;;;;;;;;;10413231;28;851;-67
2023/03/29 16:48:03;;;;;;;;;;;;;;;;;;10412970;28;1694;-67
2023/03/29 16:52:59;;;;;;;;;;;;;;;;;;10412044;28;1983;-67
2023/03/29 16:57:56;;;;;;;;;;;;;;;;;;10412435;28;885;-67
2023/03/29 17:02:52;;;;;;;;;;;;;;;;;;10411899;28;1752;-67
2023/03/29 17:07:48;;;;;;;;;;;;;;;;;;10411633;28;791;-67
2023/03/29 17:12:43;;;;;;;;;;;;;;;;;;10411283;28;1890;-67
2023/03/29 17:17:39;;;;;;;;;;;;;;;;;;10411245;28;971;-67
2023/03/29 17:22:35;;;;;;;;;;;;;;;;;;10412012;28;892;-67
2023/03/29 17:27:31;;;;;;;;;;;;;;;;;;10410855;28;888;-67
2023/03/29 17:32:27;;;;;;;;;;;;;;;;;;10411116;28;1882;-67
2023/03/29 17:37:23;;;;;;;;;;;;;;;;;;10410437;28;908;-67
2023/03/29 17:42:19;;;;;;;;;;;;;;;;;;10410650;28;785;-67
2023/03/29 17:47:15;;;;;;;;;;;;;;;;;;10409863;28;964;-67
2023/03/29 17:52:11;;;;;;;;;;;;;;;;;;10410087;28;1922;-68
2023/03/29 17:57:06;;;;;;;;;;;;;;;;;;10409815;28;834;-67
2023/03/29 18:02:04;;;;;;;;;;;;;;;;;;10408800;28;868;-67
2023/03/29 18:07:00;;;;;;;;;;;;;;;;;;10409381;28;832;-67
2023/03/29 18:11:56;;;;;;;;;;;;;;;;;;10409590;28;1893;-67
2023/03/29 18:16:51;;;;;;;;;;;;;;;;;;10408955;28;886;-66
2023/03/29 18:21:47;;;;;;;;;;;;;;;;;;10408295;28;952;-67
2023/03/29 18:26:43;;;;;;;;;;;;;;;;;;10409240;28;892;-71
2023/03/29 18:31:39;;;;;;;;;;;;;;;;;;10409148;28;1945;-70
2023/03/29 18:36:35;;;;;;;;;;;;;;;;;;10408417;28;801;-71
2023/03/29 18:41:31;;;;;;;;;;;;;;;;;;10408429;28;807;-71
2023/03/29 18:46:29;;;;;;;;;;;;;;;;;;10408687;28;1026;-71
2023/03/29 18:51:26;;;;;;;;;;;;;;;;;;10408547;28;1902;-71
2023/03/29 18:56:22;;;;;;;;;;;;;;;;;;10408463;28;1617;-71
2023/03/29 19:01:18;;;;;;;;;;;;;;;;;;10407830;28;801;-71
2023/03/29 19:06:14;;;;;;;;;;;;;;;;;;10408277;28;831;-71
2023/03/29 19:11:12;;;;;;;;;;;;;;;;;;10407554;28;1951;-71
2023/03/29 19:16:09;;;;;;;;;;;;;;;;;;10407459;28;973;-71
2023/03/29 19:21:05;;;;;;;;;;;;;;;;;;10407670;28;998;-71
2023/03/29 19:26:04;;;;;;;;;;;;;;;;;;10408065;28;821;-71
2023/03/29 19:31:00;;;;;;;;;;;;;;;;;;10407132;28;1932;-71
2023/03/29 19:35:56;;;;;;;;;;;;;;;;;;10414009;28;964;-71
2023/03/29 19:40:52;;;;;;;;;;;;;;;;;;10415809;28;896;-71
2023/03/29 19:45:47;;;;;;;;;;;;;;;;;;10415682;28;883;-71
2023/03/29 19:50:43;;;;;;;;;;;;;;;;;;10414776;28;1910;-71
2023/03/29 19:55:41;;;;;;;;;;;;;;;;;;10414506;28;857;-71
2023/03/29 20:00:37;;;;;;;;;;;;;;;;;;10414980;28;876;-71
2023/03/29 20:05:33;;;;;;;;;;;;;;;;;;10414162;28;874;-71
2023/03/29 20:10:29;;;;;;;;;;;;;;;;;;10413890;28;1886;-71
2023/03/29 20:15:25;;;;;;;;;;;;;;;;;;10413739;28;829;-71
2023/03/29 20:20:22;;;;;;;;;;;;;;;;;;10413820;28;951;-71
2023/03/29 20:25:18;;;;;;;;;;;;;;;;;;10413387;28;1734;-70
2023/03/29 20:30:15;;;;;;;;;;;;;;;;;;10413300;28;1885;-70
2023/03/29 20:35:11;;;;;;;;;;;;;;;;;;10413592;28;833;-70
2023/03/29 20:40:07;;;;;;;;;;;;;;;;;;10413437;28;829;-70
2023/03/29 20:45:02;;;;;;;;;;;;;;;;;;10412270;28;954;-70
2023/03/29 20:50:02;;;;;;;;;;;;;;;;;;10412962;28;1980;-70
2023/03/29 20:54:59;;;;;;;;;;;;;;;;;;10412780;28;1051;-70
2023/03/29 20:59:55;;;;;;;;;;;;;;;;;;10412572;28;766;-70
2023/03/29 21:04:51;;;;;;;;;;;;;;;;;;10411815;28;829;-70
2023/03/29 21:09:48;;;;;;;;;;;;;;;;;;10412157;28;1890;-70
2023/03/29 21:14:46;;;;;;;;;;;;;;;;;;10410730;28;1003;-70
2023/03/29 21:19:42;;;;;;;;;;;;;;;;;;10411812;28;889;-70
2023/03/29 21:24:37;;;;;;;;;;;;;;;;;;10411013;28;801;-70
2023/03/29 21:29:33;;;;;;;;;;;;;;;;;;10411492;28;1941;-70
2023/03/29 21:34:29;;;;;;;;;;;;;;;;;;10410628;28;865;-70
2023/03/29 21:39:25;;;;;;;;;;;;;;;;;;10410376;28;849;-70
2023/03/29 21:44:21;;;;;;;;;;;;;;;;;;10410930;28;825;-70
2023/03/29 21:49:17;;;;;;;;;;;;;;;;;;10409198;28;1280;-70
2023/03/29 21:54:13;;;;;;;;;;;;;;;;;;10409674;28;2037;-70
2023/03/29 21:59:09;;;;;;;;;;;;;;;;;;10409667;28;826;-70
2023/03/29 22:04:05;;;;;;;;;;;;;;;;;;10409438;28;790;-71
2023/03/29 22:09:01;;;;;;;;;;;;;;;;;;10409280;28;784;-70
2023/03/29 22:13:57;;;;;;;;;;;;;;;;;;10409561;28;1894;-70
2023/03/29 22:18:53;;;;;;;;;;;;;;;;;;10408888;28;1079;-70
2023/03/29 22:23:49;;;;;;;;;;;;;;;;;;10409417;28;809;-70
2023/03/29 22:28:45;;;;;;;;;;;;;;;;;;10409953;28;1719;-70
2023/03/29 22:33:41;;;;;;;;;;;;;;;;;;10409156;28;1943;-70
2023/03/29 22:38:37;;;;;;;;;;;;;;;;;;10407675;28;896;-70
2023/03/29 22:43:33;;;;;;;;;;;;;;;;;;10408253;28;822;-70
2023/03/29 22:48:29;;;;;;;;;;;;;;;;;;10407542;28;891;-70
2023/03/29 22:53:24;;;;;;;;;;;;;;;;;;10409037;28;1973;-70
2023/03/29 22:58:20;;;;;;;;;;;;;;;;;;10407944;28;859;-70
2023/03/29 23:03:16;;;;;;;;;;;;;;;;;;10407807;28;787;-70
2023/03/29 23:08:12;;;;;;;;;;;;;;;;;;10412677;28;950;-70
2023/03/29 23:13:08;;;;;;;;;;;;;;;;;;10415568;28;1951;-70
2023/03/29 23:18:04;;;;;;;;;;;;;;;;;;10416043;28;1028;-70
2023/03/29 23:23:00;;;;;;;;;;;;;;;;;;10415854;28;886;-70
2023/03/29 23:27:56;;;;;;;;;;;;;;;;;;10415631;28;991;-70
2023/03/29 23:32:52;;;;;;;;;;;;;;;;;;10415311;28;1910;-70
2023/03/29 23:37:48;;;;;;;;;;;;;;;;;;10416202;28;826;-70
2023/03/29 23:42:44;;;;;;;;;;;;;;;;;;10415704;28;963;-70
2023/03/29 23:47:41;;;;;;;;;;;;;;;;;;10415476;28;857;-70
2023/03/29 23:52:37;;;;;;;;;;;;;;;;;;10413974;28;1910;-70
2023/03/29 23:57:33;;;;;;;;;;;;;;;;;;10414462;28;842;-70
